sensor_id;sensor_type;location;lat;lon;timestamp;P1;durP1;ratioP1;P2;durP2;ratioP2
71790;SDS011;59638;52.126;5.434;2023-08-17T00:01:03;3.10;;;0.70;;
71790;SDS011;59638;52.126;5.434;2023-08-17T00:03:29;4.75;;;0.70;;
71790;SDS011;59638;52.126;5.434;2023-08-17T00:05:55;2.67;;;0.50;;
71790;SDS011;59638;52.126;5.434;2023-08-17T00:08:22;3.00;;;0.40;;
71790;SDS011;59638;52.126;5.434;2023-08-17T00:10:48;3.60;;;0.90;;
71790;SDS011;59638;52.126;5.434;2023-08-17T00:13:15;5.55;;;0.70;;
71790;SDS011;59638;52.126;5.434;2023-08-17T00:15:42;4.05;;;0.47;;
71790;SDS011;59638;52.126;5.434;2023-08-17T00:18:11;2.77;;;0.60;;
71790;SDS011;59638;52.126;5.434;2023-08-17T00:20:39;1.42;;;0.50;;
71790;SDS011;59638;52.126;5.434;2023-08-17T00:23:05;1.95;;;0.60;;
71790;SDS011;59638;52.126;5.434;2023-08-17T00:25:32;4.55;;;0.80;;
71790;SDS011;59638;52.126;5.434;2023-08-17T00:27:58;3.03;;;0.60;;
71790;SDS011;59638;52.126;5.434;2023-08-17T00:30:25;4.87;;;0.87;;
71790;SDS011;59638;52.126;5.434;2023-08-17T00:32:51;5.68;;;0.65;;
71790;SDS011;59638;52.126;5.434;2023-08-17T00:35:18;1.55;;;0.60;;
71790;SDS011;59638;52.126;5.434;2023-08-17T00:37:44;2.17;;;0.60;;
71790;SDS011;59638;52.126;5.434;2023-08-17T00:40:11;3.35;;;0.63;;
71790;SDS011;59638;52.126;5.434;2023-08-17T00:42:37;1.97;;;0.70;;
71790;SDS011;59638;52.126;5.434;2023-08-17T00:45:04;3.13;;;0.63;;
71790;SDS011;59638;52.126;5.434;2023-08-17T00:47:31;5.53;;;0.60;;
71790;SDS011;59638;52.126;5.434;2023-08-17T00:49:58;5.05;;;0.57;;
71790;SDS011;59638;52.126;5.434;2023-08-17T00:52:25;2.85;;;0.98;;
71790;SDS011;59638;52.126;5.434;2023-08-17T00:54:52;2.80;;;0.60;;
71790;SDS011;59638;52.126;5.434;2023-08-17T00:57:18;4.82;;;0.57;;
71790;SDS011;59638;52.126;5.434;2023-08-17T00:59:46;2.50;;;0.70;;
71790;SDS011;59638;52.126;5.434;2023-08-17T01:02:28;4.60;;;0.52;;
71790;SDS011;59638;52.126;5.434;2023-08-17T01:04:55;2.22;;;0.63;;
71790;SDS011;59638;52.126;5.434;2023-08-17T01:07:21;4.53;;;0.77;;
71790;SDS011;59638;52.126;5.434;2023-08-17T01:09:48;4.05;;;0.55;;
71790;SDS011;59638;52.126;5.434;2023-08-17T01:14:52;2.78;;;0.60;;
71790;SDS011;59638;52.126;5.434;2023-08-17T01:17:42;3.78;;;0.60;;
71790;SDS011;59638;52.126;5.434;2023-08-17T01:20:14;3.47;;;0.67;;
71790;SDS011;59638;52.126;5.434;2023-08-17T01:22:42;2.85;;;0.75;;
71790;SDS011;59638;52.126;5.434;2023-08-17T01:25:11;2.85;;;0.68;;
71790;SDS011;59638;52.126;5.434;2023-08-17T01:27:39;2.28;;;0.40;;
71790;SDS011;59638;52.126;5.434;2023-08-17T01:30:07;2.45;;;0.80;;
71790;SDS011;59638;52.126;5.434;2023-08-17T01:32:40;1.40;;;0.50;;
71790;SDS011;59638;52.126;5.434;2023-08-17T01:35:28;3.05;;;0.73;;
71790;SDS011;59638;52.126;5.434;2023-08-17T01:37:59;3.28;;;0.95;;
71790;SDS011;59638;52.126;5.434;2023-08-17T01:40:32;2.03;;;0.60;;
71790;SDS011;59638;52.126;5.434;2023-08-17T01:43:00;3.33;;;1.23;;
71790;SDS011;59638;52.126;5.434;2023-08-17T01:45:28;4.43;;;0.80;;
71790;SDS011;59638;52.126;5.434;2023-08-17T01:47:55;1.95;;;0.50;;
71790;SDS011;59638;52.126;5.434;2023-08-17T01:50:22;5.72;;;0.77;;
71790;SDS011;59638;52.126;5.434;2023-08-17T01:52:48;3.90;;;0.47;;
71790;SDS011;59638;52.126;5.434;2023-08-17T01:55:17;3.58;;;0.95;;
71790;SDS011;59638;52.126;5.434;2023-08-17T01:57:43;4.23;;;0.87;;
71790;SDS011;59638;52.126;5.434;2023-08-17T02:00:10;1.55;;;0.30;;
71790;SDS011;59638;52.126;5.434;2023-08-17T02:02:37;2.67;;;0.38;;
71790;SDS011;59638;52.126;5.434;2023-08-17T02:05:04;3.67;;;0.70;;
71790;SDS011;59638;52.126;5.434;2023-08-17T02:07:30;5.03;;;0.57;;
71790;SDS011;59638;52.126;5.434;2023-08-17T02:09:57;4.87;;;0.53;;
71790;SDS011;59638;52.126;5.434;2023-08-17T02:12:23;4.13;;;0.35;;
71790;SDS011;59638;52.126;5.434;2023-08-17T02:14:50;3.03;;;0.68;;
71790;SDS011;59638;52.126;5.434;2023-08-17T02:17:16;0.77;;;0.35;;
71790;SDS011;59638;52.126;5.434;2023-08-17T02:19:45;1.90;;;0.52;;
71790;SDS011;59638;52.126;5.434;2023-08-17T02:22:13;5.37;;;0.83;;
71790;SDS011;59638;52.126;5.434;2023-08-17T02:24:40;2.83;;;0.57;;
71790;SDS011;59638;52.126;5.434;2023-08-17T02:27:08;2.60;;;0.50;;
71790;SDS011;59638;52.126;5.434;2023-08-17T02:29:35;4.35;;;0.68;;
71790;SDS011;59638;52.126;5.434;2023-08-17T02:32:02;4.32;;;0.70;;
71790;SDS011;59638;52.126;5.434;2023-08-17T02:34:28;5.23;;;0.53;;
71790;SDS011;59638;52.126;5.434;2023-08-17T02:36:55;4.95;;;0.75;;
71790;SDS011;59638;52.126;5.434;2023-08-17T02:39:21;5.03;;;0.90;;
71790;SDS011;59638;52.126;5.434;2023-08-17T02:41:48;2.38;;;0.95;;
71790;SDS011;59638;52.126;5.434;2023-08-17T02:44:15;2.88;;;1.17;;
71790;SDS011;59638;52.126;5.434;2023-08-17T02:46:42;5.13;;;0.73;;
71790;SDS011;59638;52.126;5.434;2023-08-17T02:49:08;2.47;;;0.90;;
71790;SDS011;59638;52.126;5.434;2023-08-17T02:51:35;4.15;;;0.70;;
71790;SDS011;59638;52.126;5.434;2023-08-17T02:54:01;3.05;;;0.88;;
71790;SDS011;59638;52.126;5.434;2023-08-17T02:56:28;4.90;;;0.80;;
71790;SDS011;59638;52.126;5.434;2023-08-17T02:58:54;2.03;;;0.53;;
71790;SDS011;59638;52.126;5.434;2023-08-17T03:01:21;2.83;;;0.70;;
71790;SDS011;59638;52.126;5.434;2023-08-17T03:03:47;5.63;;;0.63;;
71790;SDS011;59638;52.126;5.434;2023-08-17T03:06:14;4.20;;;0.98;;
71790;SDS011;59638;52.126;5.434;2023-08-17T03:08:40;2.83;;;0.75;;
71790;SDS011;59638;52.126;5.434;2023-08-17T03:11:06;3.50;;;0.90;;
71790;SDS011;59638;52.126;5.434;2023-08-17T03:13:35;5.75;;;1.58;;
71790;SDS011;59638;52.126;5.434;2023-08-17T03:16:02;2.92;;;0.60;;
71790;SDS011;59638;52.126;5.434;2023-08-17T03:18:28;4.78;;;0.80;;
71790;SDS011;59638;52.126;5.434;2023-08-17T03:20:55;2.15;;;0.60;;
71790;SDS011;59638;52.126;5.434;2023-08-17T03:23:21;1.70;;;0.90;;
71790;SDS011;59638;52.126;5.434;2023-08-17T03:25:51;2.78;;;0.90;;
71790;SDS011;59638;52.126;5.434;2023-08-17T03:28:20;5.60;;;0.70;;
71790;SDS011;59638;52.126;5.434;2023-08-17T03:30:46;4.18;;;0.95;;
71790;SDS011;59638;52.126;5.434;2023-08-17T03:33:13;4.65;;;0.73;;
71790;SDS011;59638;52.126;5.434;2023-08-17T03:35:39;3.87;;;0.53;;
71790;SDS011;59638;52.126;5.434;2023-08-17T03:38:06;2.80;;;0.93;;
71790;SDS011;59638;52.126;5.434;2023-08-17T03:40:32;4.05;;;0.80;;
71790;SDS011;59638;52.126;5.434;2023-08-17T03:42:59;4.10;;;0.65;;
71790;SDS011;59638;52.126;5.434;2023-08-17T03:45:25;3.25;;;0.63;;
71790;SDS011;59638;52.126;5.434;2023-08-17T03:47:52;3.83;;;0.90;;
71790;SDS011;59638;52.126;5.434;2023-08-17T03:50:18;2.83;;;0.75;;
71790;SDS011;59638;52.126;5.434;2023-08-17T03:52:45;3.45;;;0.52;;
71790;SDS011;59638;52.126;5.434;2023-08-17T03:55:11;6.78;;;0.60;;
71790;SDS011;59638;52.126;5.434;2023-08-17T03:57:37;2.35;;;1.23;;
71790;SDS011;59638;52.126;5.434;2023-08-17T04:00:05;3.73;;;0.70;;
71790;SDS011;59638;52.126;5.434;2023-08-17T04:02:33;4.65;;;0.80;;
71790;SDS011;59638;52.126;5.434;2023-08-17T04:04:59;2.78;;;0.70;;
71790;SDS011;59638;52.126;5.434;2023-08-17T04:07:26;3.50;;;0.57;;
71790;SDS011;59638;52.126;5.434;2023-08-17T04:09:53;4.15;;;0.70;;
71790;SDS011;59638;52.126;5.434;2023-08-17T04:12:19;3.50;;;0.70;;
71790;SDS011;59638;52.126;5.434;2023-08-17T04:14:46;3.65;;;1.10;;
71790;SDS011;59638;52.126;5.434;2023-08-17T04:17:12;2.65;;;0.45;;
71790;SDS011;59638;52.126;5.434;2023-08-17T04:19:39;1.98;;;0.30;;
71790;SDS011;59638;52.126;5.434;2023-08-17T04:22:05;3.45;;;0.60;;
71790;SDS011;59638;52.126;5.434;2023-08-17T04:24:32;5.33;;;0.40;;
71790;SDS011;59638;52.126;5.434;2023-08-17T04:26:58;2.85;;;0.32;;
71790;SDS011;59638;52.126;5.434;2023-08-17T04:29:25;3.67;;;0.40;;
71790;SDS011;59638;52.126;5.434;2023-08-17T04:31:51;2.80;;;0.50;;
71790;SDS011;59638;52.126;5.434;2023-08-17T04:34:18;8.32;;;1.73;;
71790;SDS011;59638;52.126;5.434;2023-08-17T04:36:44;5.80;;;0.87;;
71790;SDS011;59638;52.126;5.434;2023-08-17T04:39:11;1.00;;;0.30;;
71790;SDS011;59638;52.126;5.434;2023-08-17T04:41:37;3.38;;;0.40;;
71790;SDS011;59638;52.126;5.434;2023-08-17T04:44:05;2.67;;;0.40;;
71790;SDS011;59638;52.126;5.434;2023-08-17T04:46:31;2.35;;;0.30;;
71790;SDS011;59638;52.126;5.434;2023-08-17T04:48:58;5.40;;;0.23;;
71790;SDS011;59638;52.126;5.434;2023-08-17T04:51:24;2.00;;;0.40;;
71790;SDS011;59638;52.126;5.434;2023-08-17T04:53:50;3.67;;;0.40;;
71790;SDS011;59638;52.126;5.434;2023-08-17T04:56:18;1.45;;;0.30;;
71790;SDS011;59638;52.126;5.434;2023-08-17T04:58:44;3.05;;;0.50;;
71790;SDS011;59638;52.126;5.434;2023-08-17T05:01:11;3.00;;;0.30;;
71790;SDS011;59638;52.126;5.434;2023-08-17T05:03:37;4.35;;;0.30;;
71790;SDS011;59638;52.126;5.434;2023-08-17T05:06:04;6.60;;;0.63;;
71790;SDS011;59638;52.126;5.434;2023-08-17T05:08:30;2.42;;;0.20;;
71790;SDS011;59638;52.126;5.434;2023-08-17T05:10:57;4.50;;;0.60;;
71790;SDS011;59638;52.126;5.434;2023-08-17T05:13:23;4.93;;;0.30;;
71790;SDS011;59638;52.126;5.434;2023-08-17T05:15:50;1.08;;;0.45;;
71790;SDS011;59638;52.126;5.434;2023-08-17T05:18:16;3.20;;;0.30;;
71790;SDS011;59638;52.126;5.434;2023-08-17T05:20:43;2.22;;;0.40;;
71790;SDS011;59638;52.126;5.434;2023-08-17T05:23:09;2.47;;;0.52;;
71790;SDS011;59638;52.126;5.434;2023-08-17T05:25:36;2.60;;;0.40;;
71790;SDS011;59638;52.126;5.434;2023-08-17T05:28:02;9.05;;;0.65;;
71790;SDS011;59638;52.126;5.434;2023-08-17T05:30:29;4.25;;;0.60;;
71790;SDS011;59638;52.126;5.434;2023-08-17T05:32:55;3.03;;;0.22;;
71790;SDS011;59638;52.126;5.434;2023-08-17T05:35:22;2.58;;;0.45;;
71790;SDS011;59638;52.126;5.434;2023-08-17T05:37:48;2.57;;;0.40;;
71790;SDS011;59638;52.126;5.434;2023-08-17T05:40:15;3.13;;;0.50;;
71790;SDS011;59638;52.126;5.434;2023-08-17T05:42:42;4.30;;;0.35;;
71790;SDS011;59638;52.126;5.434;2023-08-17T05:45:08;2.05;;;0.28;;
71790;SDS011;59638;52.126;5.434;2023-08-17T05:47:35;4.18;;;0.40;;
71790;SDS011;59638;52.126;5.434;2023-08-17T05:50:01;4.47;;;0.30;;
71790;SDS011;59638;52.126;5.434;2023-08-17T05:52:28;3.28;;;0.30;;
71790;SDS011;59638;52.126;5.434;2023-08-17T05:54:54;2.30;;;0.30;;
71790;SDS011;59638;52.126;5.434;2023-08-17T05:57:21;1.15;;;0.30;;
71790;SDS011;59638;52.126;5.434;2023-08-17T05:59:48;1.27;;;0.30;;
71790;SDS011;59638;52.126;5.434;2023-08-17T06:02:15;1.93;;;0.30;;
71790;SDS011;59638;52.126;5.434;2023-08-17T06:04:41;2.45;;;0.68;;
71790;SDS011;59638;52.126;5.434;2023-08-17T06:07:08;4.85;;;0.80;;
71790;SDS011;59638;52.126;5.434;2023-08-17T06:09:34;4.35;;;0.40;;
71790;SDS011;59638;52.126;5.434;2023-08-17T06:12:01;4.97;;;0.55;;
71790;SDS011;59638;52.126;5.434;2023-08-17T06:14:27;2.23;;;0.30;;
71790;SDS011;59638;52.126;5.434;2023-08-17T06:16:54;2.20;;;0.30;;
71790;SDS011;59638;52.126;5.434;2023-08-17T06:19:21;2.17;;;0.40;;
71790;SDS011;59638;52.126;5.434;2023-08-17T06:21:47;1.85;;;0.40;;
71790;SDS011;59638;52.126;5.434;2023-08-17T06:24:14;1.88;;;0.50;;
71790;SDS011;59638;52.126;5.434;2023-08-17T06:26:40;3.63;;;0.40;;
71790;SDS011;59638;52.126;5.434;2023-08-17T06:29:07;2.53;;;0.52;;
71790;SDS011;59638;52.126;5.434;2023-08-17T06:31:34;2.88;;;0.30;;
71790;SDS011;59638;52.126;5.434;2023-08-17T06:34:00;2.15;;;0.43;;
71790;SDS011;59638;52.126;5.434;2023-08-17T06:36:30;3.95;;;0.52;;
71790;SDS011;59638;52.126;5.434;2023-08-17T06:38:57;2.47;;;0.40;;
71790;SDS011;59638;52.126;5.434;2023-08-17T06:41:24;4.15;;;0.75;;
71790;SDS011;59638;52.126;5.434;2023-08-17T06:43:51;5.38;;;0.80;;
71790;SDS011;59638;52.126;5.434;2023-08-17T06:46:17;4.20;;;0.55;;
71790;SDS011;59638;52.126;5.434;2023-08-17T06:48:44;4.40;;;0.45;;
71790;SDS011;59638;52.126;5.434;2023-08-17T06:51:10;2.13;;;0.40;;
71790;SDS011;59638;52.126;5.434;2023-08-17T06:53:37;6.50;;;0.60;;
71790;SDS011;59638;52.126;5.434;2023-08-17T06:56:03;1.40;;;0.45;;
71790;SDS011;59638;52.126;5.434;2023-08-17T06:58:30;3.22;;;0.40;;
71790;SDS011;59638;52.126;5.434;2023-08-17T07:00:56;3.30;;;0.40;;
71790;SDS011;59638;52.126;5.434;2023-08-17T07:03:23;1.83;;;0.27;;
71790;SDS011;59638;52.126;5.434;2023-08-17T07:05:49;3.80;;;0.50;;
71790;SDS011;59638;52.126;5.434;2023-08-17T07:08:16;2.63;;;0.35;;
71790;SDS011;59638;52.126;5.434;2023-08-17T07:10:43;3.03;;;0.38;;
71790;SDS011;59638;52.126;5.434;2023-08-17T07:13:09;3.55;;;0.40;;
71790;SDS011;59638;52.126;5.434;2023-08-17T07:15:36;3.00;;;0.43;;
71790;SDS011;59638;52.126;5.434;2023-08-17T07:18:02;2.38;;;0.40;;
71790;SDS011;59638;52.126;5.434;2023-08-17T07:20:29;3.30;;;0.43;;
71790;SDS011;59638;52.126;5.434;2023-08-17T07:22:55;3.88;;;0.43;;
71790;SDS011;59638;52.126;5.434;2023-08-17T07:25:23;9.15;;;0.50;;
71790;SDS011;59638;52.126;5.434;2023-08-17T07:27:49;1.70;;;0.30;;
71790;SDS011;59638;52.126;5.434;2023-08-17T07:30:16;3.13;;;0.40;;
71790;SDS011;59638;52.126;5.434;2023-08-17T07:32:42;2.97;;;0.70;;
71790;SDS011;59638;52.126;5.434;2023-08-17T07:35:09;3.28;;;0.60;;
71790;SDS011;59638;52.126;5.434;2023-08-17T07:37:38;2.42;;;0.52;;
71790;SDS011;59638;52.126;5.434;2023-08-17T07:40:05;1.70;;;0.50;;
71790;SDS011;59638;52.126;5.434;2023-08-17T07:42:32;3.70;;;0.30;;
71790;SDS011;59638;52.126;5.434;2023-08-17T07:44:58;5.13;;;0.60;;
71790;SDS011;59638;52.126;5.434;2023-08-17T07:47:25;3.35;;;0.63;;
71790;SDS011;59638;52.126;5.434;2023-08-17T07:49:52;2.38;;;0.38;;
71790;SDS011;59638;52.126;5.434;2023-08-17T07:52:19;3.33;;;0.27;;
71790;SDS011;59638;52.126;5.434;2023-08-17T07:54:45;2.30;;;0.50;;
71790;SDS011;59638;52.126;5.434;2023-08-17T07:57:12;3.25;;;0.40;;
71790;SDS011;59638;52.126;5.434;2023-08-17T07:59:38;2.95;;;0.30;;
71790;SDS011;59638;52.126;5.434;2023-08-17T08:02:05;2.97;;;1.65;;
71790;SDS011;59638;52.126;5.434;2023-08-17T08:04:31;2.73;;;0.63;;
71790;SDS011;59638;52.126;5.434;2023-08-17T08:06:58;3.00;;;0.40;;
71790;SDS011;59638;52.126;5.434;2023-08-17T08:09:24;3.08;;;0.50;;
71790;SDS011;59638;52.126;5.434;2023-08-17T08:11:51;4.05;;;0.50;;
71790;SDS011;59638;52.126;5.434;2023-08-17T08:14:17;4.07;;;0.85;;
71790;SDS011;59638;52.126;5.434;2023-08-17T08:16:44;2.30;;;0.50;;
71790;SDS011;59638;52.126;5.434;2023-08-17T08:19:10;2.67;;;0.50;;
71790;SDS011;59638;52.126;5.434;2023-08-17T08:21:37;2.03;;;0.52;;
71790;SDS011;59638;52.126;5.434;2023-08-17T08:24:03;2.65;;;0.77;;
71790;SDS011;59638;52.126;5.434;2023-08-17T08:26:36;2.17;;;0.60;;
71790;SDS011;59638;52.126;5.434;2023-08-17T08:29:02;4.20;;;0.57;;
71790;SDS011;59638;52.126;5.434;2023-08-17T08:31:29;5.88;;;0.98;;
71790;SDS011;59638;52.126;5.434;2023-08-17T08:33:55;4.03;;;0.75;;
71790;SDS011;59638;52.126;5.434;2023-08-17T08:36:22;3.85;;;0.40;;
71790;SDS011;59638;52.126;5.434;2023-08-17T08:38:48;2.13;;;0.50;;
71790;SDS011;59638;52.126;5.434;2023-08-17T08:41:15;1.10;;;0.30;;
71790;SDS011;59638;52.126;5.434;2023-08-17T08:43:41;4.65;;;0.40;;
71790;SDS011;59638;52.126;5.434;2023-08-17T08:46:09;2.75;;;0.40;;
71790;SDS011;59638;52.126;5.434;2023-08-17T08:48:35;1.42;;;0.43;;
71790;SDS011;59638;52.126;5.434;2023-08-17T08:51:07;2.88;;;0.40;;
71790;SDS011;59638;52.126;5.434;2023-08-17T08:53:41;1.70;;;0.30;;
71790;SDS011;59638;52.126;5.434;2023-08-17T08:56:11;3.42;;;0.75;;
71790;SDS011;59638;52.126;5.434;2023-08-17T08:58:39;3.90;;;0.88;;
71790;SDS011;59638;52.126;5.434;2023-08-17T09:01:06;2.60;;;0.70;;
71790;SDS011;59638;52.126;5.434;2023-08-17T09:03:36;2.88;;;0.60;;
71790;SDS011;59638;52.126;5.434;2023-08-17T09:06:03;2.73;;;0.33;;
71790;SDS011;59638;52.126;5.434;2023-08-17T09:08:30;2.25;;;0.40;;
71790;SDS011;59638;52.126;5.434;2023-08-17T09:10:57;6.00;;;0.50;;
71790;SDS011;59638;52.126;5.434;2023-08-17T09:13:23;1.98;;;0.32;;
71790;SDS011;59638;52.126;5.434;2023-08-17T09:15:50;1.90;;;0.50;;
71790;SDS011;59638;52.126;5.434;2023-08-17T09:18:17;2.77;;;0.43;;
71790;SDS011;59638;52.126;5.434;2023-08-17T09:20:44;4.80;;;0.65;;
71790;SDS011;59638;52.126;5.434;2023-08-17T09:23:15;3.72;;;0.52;;
71790;SDS011;59638;52.126;5.434;2023-08-17T09:25:44;2.03;;;0.70;;
71790;SDS011;59638;52.126;5.434;2023-08-17T09:28:11;2.78;;;0.68;;
71790;SDS011;59638;52.126;5.434;2023-08-17T09:30:53;1.70;;;0.60;;
71790;SDS011;59638;52.126;5.434;2023-08-17T09:33:22;3.72;;;0.57;;
71790;SDS011;59638;52.126;5.434;2023-08-17T09:35:50;2.67;;;1.00;;
71790;SDS011;59638;52.126;5.434;2023-08-17T09:38:23;2.78;;;0.82;;
71790;SDS011;59638;52.126;5.434;2023-08-17T09:40:49;2.88;;;0.70;;
71790;SDS011;59638;52.126;5.434;2023-08-17T09:43:16;4.47;;;1.10;;
71790;SDS011;59638;52.126;5.434;2023-08-17T09:45:44;5.25;;;1.00;;
71790;SDS011;59638;52.126;5.434;2023-08-17T09:48:16;1.88;;;0.85;;
71790;SDS011;59638;52.126;5.434;2023-08-17T09:50:44;3.78;;;0.90;;
71790;SDS011;59638;52.126;5.434;2023-08-17T09:53:12;2.30;;;0.80;;
71790;SDS011;59638;52.126;5.434;2023-08-17T09:55:40;3.30;;;0.60;;
71790;SDS011;59638;52.126;5.434;2023-08-17T09:58:08;4.70;;;0.98;;
71790;SDS011;59638;52.126;5.434;2023-08-17T10:00:35;2.15;;;0.95;;
71790;SDS011;59638;52.126;5.434;2023-08-17T10:03:04;2.08;;;0.77;;
71790;SDS011;59638;52.126;5.434;2023-08-17T10:05:35;4.40;;;0.80;;
71790;SDS011;59638;52.126;5.434;2023-08-17T10:08:06;7.07;;;0.80;;
71790;SDS011;59638;52.126;5.434;2023-08-17T10:10:34;3.47;;;0.65;;
71790;SDS011;59638;52.126;5.434;2023-08-17T10:13:12;4.95;;;0.68;;
71790;SDS011;59638;52.126;5.434;2023-08-17T10:15:59;3.60;;;0.80;;
71790;SDS011;59638;52.126;5.434;2023-08-17T10:18:45;2.78;;;0.80;;
71790;SDS011;59638;52.126;5.434;2023-08-17T10:23:55;5.65;;;1.13;;
71790;SDS011;59638;52.126;5.434;2023-08-17T10:26:23;3.53;;;1.40;;
71790;SDS011;59638;52.126;5.434;2023-08-17T10:28:53;3.55;;;0.60;;
71790;SDS011;59638;52.126;5.434;2023-08-17T10:31:26;4.60;;;0.70;;
71790;SDS011;59638;52.126;5.434;2023-08-17T10:33:52;3.43;;;0.73;;
71790;SDS011;59638;52.126;5.434;2023-08-17T10:36:19;8.32;;;0.90;;
71790;SDS011;59638;52.126;5.434;2023-08-17T10:38:47;6.90;;;1.08;;
71790;SDS011;59638;52.126;5.434;2023-08-17T10:41:14;2.80;;;0.63;;
71790;SDS011;59638;52.126;5.434;2023-08-17T10:43:56;4.10;;;1.00;;
71790;SDS011;59638;52.126;5.434;2023-08-17T10:46:34;2.27;;;0.57;;
71790;SDS011;59638;52.126;5.434;2023-08-17T10:49:03;3.25;;;0.50;;
71790;SDS011;59638;52.126;5.434;2023-08-17T10:51:32;6.85;;;0.90;;
71790;SDS011;59638;52.126;5.434;2023-08-17T10:54:01;3.55;;;0.80;;
71790;SDS011;59638;52.126;5.434;2023-08-17T10:56:29;11.05;;;1.85;;
71790;SDS011;59638;52.126;5.434;2023-08-17T10:59:00;6.43;;;0.80;;
71790;SDS011;59638;52.126;5.434;2023-08-17T11:01:31;2.25;;;0.75;;
71790;SDS011;59638;52.126;5.434;2023-08-17T11:04:12;3.88;;;0.93;;
71790;SDS011;59638;52.126;5.434;2023-08-17T11:06:42;2.58;;;0.98;;
71790;SDS011;59638;52.126;5.434;2023-08-17T11:09:11;6.35;;;1.30;;
71790;SDS011;59638;52.126;5.434;2023-08-17T11:11:42;3.43;;;0.90;;
71790;SDS011;59638;52.126;5.434;2023-08-17T11:14:08;2.72;;;1.00;;
71790;SDS011;59638;52.126;5.434;2023-08-17T11:16:35;2.30;;;1.08;;
71790;SDS011;59638;52.126;5.434;2023-08-17T11:19:01;5.53;;;1.25;;
71790;SDS011;59638;52.126;5.434;2023-08-17T11:21:28;4.00;;;1.45;;
71790;SDS011;59638;52.126;5.434;2023-08-17T11:23:55;4.77;;;1.43;;
71790;SDS011;59638;52.126;5.434;2023-08-17T11:26:22;2.65;;;1.05;;
71790;SDS011;59638;52.126;5.434;2023-08-17T11:28:49;5.20;;;1.58;;
71790;SDS011;59638;52.126;5.434;2023-08-17T11:31:16;2.70;;;1.30;;
71790;SDS011;59638;52.126;5.434;2023-08-17T11:33:43;2.58;;;1.17;;
71790;SDS011;59638;52.126;5.434;2023-08-17T11:36:09;4.27;;;1.53;;
71790;SDS011;59638;52.126;5.434;2023-08-17T11:38:40;3.70;;;1.23;;
71790;SDS011;59638;52.126;5.434;2023-08-17T11:41:08;3.08;;;1.30;;
71790;SDS011;59638;52.126;5.434;2023-08-17T11:43:35;4.07;;;1.38;;
71790;SDS011;59638;52.126;5.434;2023-08-17T11:46:02;3.85;;;1.17;;
71790;SDS011;59638;52.126;5.434;2023-08-17T11:48:30;3.83;;;1.20;;
71790;SDS011;59638;52.126;5.434;2023-08-17T11:51:00;4.50;;;0.90;;
71790;SDS011;59638;52.126;5.434;2023-08-17T11:53:32;3.78;;;1.40;;
71790;SDS011;59638;52.126;5.434;2023-08-17T11:55:59;5.05;;;1.58;;
71790;SDS011;59638;52.126;5.434;2023-08-17T11:58:42;4.68;;;1.42;;
71790;SDS011;59638;52.126;5.434;2023-08-17T12:01:10;3.50;;;1.30;;
71790;SDS011;59638;52.126;5.434;2023-08-17T12:03:38;4.60;;;1.13;;
71790;SDS011;59638;52.126;5.434;2023-08-17T12:06:06;4.75;;;1.50;;
71790;SDS011;59638;52.126;5.434;2023-08-17T12:08:33;7.20;;;1.23;;
71790;SDS011;59638;52.126;5.434;2023-08-17T12:11:00;4.10;;;1.23;;
71790;SDS011;59638;52.126;5.434;2023-08-17T12:13:29;7.10;;;1.40;;
71790;SDS011;59638;52.126;5.434;2023-08-17T12:16:02;4.57;;;1.70;;
71790;SDS011;59638;52.126;5.434;2023-08-17T12:18:33;2.50;;;1.23;;
71790;SDS011;59638;52.126;5.434;2023-08-17T12:21:00;3.63;;;1.20;;
71790;SDS011;59638;52.126;5.434;2023-08-17T12:23:27;3.47;;;1.63;;
71790;SDS011;59638;52.126;5.434;2023-08-17T12:25:54;5.20;;;1.27;;
71790;SDS011;59638;52.126;5.434;2023-08-17T12:28:22;4.88;;;1.50;;
71790;SDS011;59638;52.126;5.434;2023-08-17T12:30:56;4.07;;;1.33;;
71790;SDS011;59638;52.126;5.434;2023-08-17T12:33:27;6.47;;;1.88;;
71790;SDS011;59638;52.126;5.434;2023-08-17T12:35:54;4.55;;;1.00;;
71790;SDS011;59638;52.126;5.434;2023-08-17T12:38:23;3.83;;;0.97;;
71790;SDS011;59638;52.126;5.434;2023-08-17T12:40:50;2.60;;;1.30;;
71790;SDS011;59638;52.126;5.434;2023-08-17T12:43:17;3.53;;;0.77;;
71790;SDS011;59638;52.126;5.434;2023-08-17T12:45:43;3.00;;;1.23;;
71790;SDS011;59638;52.126;5.434;2023-08-17T12:48:10;3.15;;;1.05;;
71790;SDS011;59638;52.126;5.434;2023-08-17T12:50:36;1.60;;;1.10;;
71790;SDS011;59638;52.126;5.434;2023-08-17T12:53:09;3.85;;;1.02;;
71790;SDS011;59638;52.126;5.434;2023-08-17T12:55:35;3.17;;;0.90;;
71790;SDS011;59638;52.126;5.434;2023-08-17T12:58:02;2.60;;;1.00;;
71790;SDS011;59638;52.126;5.434;2023-08-17T13:00:28;3.88;;;1.70;;
71790;SDS011;59638;52.126;5.434;2023-08-17T13:02:55;2.17;;;1.37;;
71790;SDS011;59638;52.126;5.434;2023-08-17T13:05:21;6.50;;;1.75;;
71790;SDS011;59638;52.126;5.434;2023-08-17T13:07:48;4.68;;;1.38;;
71790;SDS011;59638;52.126;5.434;2023-08-17T13:10:14;2.30;;;1.00;;
71790;SDS011;59638;52.126;5.434;2023-08-17T13:12:41;4.30;;;1.50;;
71790;SDS011;59638;52.126;5.434;2023-08-17T13:15:07;1.90;;;1.20;;
71790;SDS011;59638;52.126;5.434;2023-08-17T13:17:34;3.33;;;1.52;;
71790;SDS011;59638;52.126;5.434;2023-08-17T13:20:00;6.40;;;1.42;;
71790;SDS011;59638;52.126;5.434;2023-08-17T13:22:27;6.70;;;1.92;;
71790;SDS011;59638;52.126;5.434;2023-08-17T13:24:54;3.25;;;1.30;;
71790;SDS011;59638;52.126;5.434;2023-08-17T13:27:20;3.40;;;0.77;;
71790;SDS011;59638;52.126;5.434;2023-08-17T13:29:47;4.00;;;0.90;;
71790;SDS011;59638;52.126;5.434;2023-08-17T13:32:13;3.20;;;0.80;;
71790;SDS011;59638;52.126;5.434;2023-08-17T13:34:40;3.13;;;1.20;;
71790;SDS011;59638;52.126;5.434;2023-08-17T13:37:06;3.38;;;1.02;;
71790;SDS011;59638;52.126;5.434;2023-08-17T13:39:33;3.97;;;1.10;;
71790;SDS011;59638;52.126;5.434;2023-08-17T13:41:59;5.20;;;0.77;;
71790;SDS011;59638;52.126;5.434;2023-08-17T13:44:26;5.28;;;1.10;;
71790;SDS011;59638;52.126;5.434;2023-08-17T13:46:52;2.63;;;1.23;;
71790;SDS011;59638;52.126;5.434;2023-08-17T13:49:19;7.07;;;1.70;;
71790;SDS011;59638;52.126;5.434;2023-08-17T13:51:45;4.93;;;1.20;;
71790;SDS011;59638;52.126;5.434;2023-08-17T13:54:12;6.25;;;1.02;;
71790;SDS011;59638;52.126;5.434;2023-08-17T13:56:38;2.00;;;0.85;;
71790;SDS011;59638;52.126;5.434;2023-08-17T13:59:05;2.05;;;1.10;;
71790;SDS011;59638;52.126;5.434;2023-08-17T14:01:31;2.00;;;0.95;;
71790;SDS011;59638;52.126;5.434;2023-08-17T14:03:58;2.23;;;0.90;;
71790;SDS011;59638;52.126;5.434;2023-08-17T14:06:24;3.53;;;1.15;;
71790;SDS011;59638;52.126;5.434;2023-08-17T14:08:51;4.10;;;1.60;;
71790;SDS011;59638;52.126;5.434;2023-08-17T14:11:17;2.05;;;1.10;;
71790;SDS011;59638;52.126;5.434;2023-08-17T14:13:44;3.22;;;1.20;;
71790;SDS011;59638;52.126;5.434;2023-08-17T14:16:10;2.17;;;1.30;;
71790;SDS011;59638;52.126;5.434;2023-08-17T14:18:37;2.20;;;1.50;;
71790;SDS011;59638;52.126;5.434;2023-08-17T14:21:03;4.13;;;1.10;;
71790;SDS011;59638;52.126;5.434;2023-08-17T14:23:29;2.97;;;1.20;;
71790;SDS011;59638;52.126;5.434;2023-08-17T14:25:56;6.75;;;1.50;;
71790;SDS011;59638;52.126;5.434;2023-08-17T14:28:22;2.20;;;1.60;;
71790;SDS011;59638;52.126;5.434;2023-08-17T14:30:49;5.80;;;1.83;;
71790;SDS011;59638;52.126;5.434;2023-08-17T14:33:18;7.57;;;1.90;;
71790;SDS011;59638;52.126;5.434;2023-08-17T14:35:45;3.65;;;1.40;;
71790;SDS011;59638;52.126;5.434;2023-08-17T14:38:11;2.85;;;1.52;;
71790;SDS011;59638;52.126;5.434;2023-08-17T14:40:43;2.87;;;1.40;;
71790;SDS011;59638;52.126;5.434;2023-08-17T14:43:13;3.10;;;1.88;;
71790;SDS011;59638;52.126;5.434;2023-08-17T14:45:41;3.65;;;1.98;;
71790;SDS011;59638;52.126;5.434;2023-08-17T14:48:08;3.42;;;1.65;;
71790;SDS011;59638;52.126;5.434;2023-08-17T14:50:35;3.47;;;1.35;;
71790;SDS011;59638;52.126;5.434;2023-08-17T14:53:02;3.90;;;1.70;;
71790;SDS011;59638;52.126;5.434;2023-08-17T14:55:32;3.97;;;1.52;;